Buoy 41991

sailwx.info

Track history (hours):
 
Tides and Currents Weather Stations Pressure Air Temp Water Temp Dewpoint Dewpoint Depression Visibility Wind Speed Wind Dir Waves Ship Positions

Drifting buoy 41991

Last reported at 2016-Oct-01 02:07 UTC. Time now 2016-Oct-01 03:19 UTC.
Position N 30°43' W 055°01'.

Water temperature 26.7 ° C

Date/timePositionNaut miles runAvg speedWind from/ knotsBaromVisibWave heightAir tempDewpointWater temp
2016-Oct-01 02:07N 30°43' W 055°01'1 3.9 26.7
2016-Oct-01 01:58N 30°42' W 055°01'0 0.1 26.7
2016-Oct-01 01:08N 30°42' W 055°01'0 6.2 26.7
2016-Oct-01 01:06N 30°42' W 055°01'0 0.5 26.7
2016-Oct-01 00:27N 30°43' W 055°01'1 1.0 26.7
2016-Sep-30 23:37N 30°42' W 055°01'0 0.9 26.7
2016-Sep-30 23:23N 30°42' W 055°01'1 0.7 26.7
2016-Sep-30 22:06N 30°41' W 054°60'0 0.9 26.8
2016-Sep-30 22:01N 30°41' W 054°60'0 2.8 26.8
2016-Sep-30 21:57N 30°41' W 055°00'1 5.6 26.8
2016-Sep-30 21:48N 30°41' W 054°59'0 0.2 26.8
2016-Sep-30 19:27N 30°40' W 054°59'125.1 26.9
2016-Sep-30 19:24N 30°39' W 054°58'0 0.0 26.9
2016-Sep-30 17:53N 30°39' W 054°58'2 0.8 26.8
2016-Sep-30 15:34N 30°39' W 054°56'0 0.0 26.7
2016-Sep-30 14:51N 30°39' W 054°56'0 0.4 26.7
2016-Sep-30 13:54N 30°39' W 054°55'0 0.3 26.6
2016-Sep-30 13:07N 30°39' W 054°55'0 4.7 26.6
2016-Sep-30 13:06N 30°39' W 054°55'1 0.9 26.6
2016-Sep-30 12:12N 30°39' W 054°54'0 0.0 26.6
2016-Sep-30 12:07N 30°39' W 054°54'0 0.0 26.6
2016-Sep-30 11:06N 30°39' W 054°54'0 1.2 26.6
2016-Sep-30 10:48N 30°39' W 054°54'0 1.4 26.6
2016-Sep-30 10:38N 30°39' W 054°54'1 0.4 26.6
2016-Sep-30 08:54N 30°39' W 054°53'0 0.6 26.6
2016-Sep-30 08:08N 30°39' W 054°53'1 6.4 26.6
2016-Sep-30 08:01N 30°39' W 054°52'0 0.0 26.6
2016-Sep-30 07:48N 30°39' W 054°52'1 0.7 26.7
2016-Sep-30 06:26N 30°40' W 054°53'2 0.5 26.7
2016-Sep-30 02:22N 30°37' W 054°52'0 0.0
2016-Sep-30 01:34N 30°37' W 054°52'1 4.8 27.1
2016-Sep-30 01:27N 30°37' W 054°53'0 0.0 27.1
2016-Sep-30 00:49N 30°37' W 054°53'1 3.7 27.2
2016-Sep-30 00:40N 30°37' W 054°52'0 0.0 27.2
2016-Sep-29 23:54N 30°37' W 054°52'1 0.8 27.2
2016-Sep-29 22:28N 30°36' W 054°51'0 0.0 27.3
2016-Sep-29 22:18N 30°36' W 054°51'0 2.0 27.3
2016-Sep-29 22:07N 30°35' W 054°51'113.6 27.3
2016-Sep-29 22:03N 30°35' W 054°50'0 0.1 27.3
2016-Sep-29 20:52N 30°35' W 054°50'0 2.9 27.3
2016-Sep-29 20:47N 30°34' W 054°50'1 3.4 27.3
2016-Sep-29 20:32N 30°35' W 054°49'0 0.1 27.3
2016-Sep-29 19:39N 30°35' W 054°49'1 0.6 27.4
2016-Sep-29 18:04N 30°34' W 054°48'2 1.1 27.4
2016-Sep-29 16:19N 30°34' W 054°46'1 0.5 27.4
2016-Sep-29 15:08N 30°34' W 054°46'0 6.3 27.4
2016-Sep-29 15:04N 30°34' W 054°46'0 0.0 27.4
2016-Sep-29 14:18N 30°34' W 054°46'1 9.1 27.4
2016-Sep-29 14:12N 30°35' W 054°46'0 0.0 27.4
2016-Sep-29 13:31N 30°35' W 054°46'0 7.2
2016-Sep-29 13:30N 30°35' W 054°47'1 9.7 27.3
2016-Sep-29 13:21N 30°35' W 054°45'1 0.9 27.3
2016-Sep-29 12:27N 30°35' W 054°44'0 0.0 27.3
2016-Sep-29 12:24N 30°35' W 054°44'0 0.0 27.3
2016-Sep-29 11:16N 30°35' W 054°44'0 0.2 27.3
2016-Sep-29 10:51N 30°35' W 054°44'0 3.1 27.3
2016-Sep-29 10:44N 30°35' W 054°44'1 1.2 27.3
2016-Sep-29 10:01N 30°35' W 054°45'1 2.5 27.3
2016-Sep-29 09:38N 30°35' W 054°44'0 0.9 27.3
2016-Sep-29 09:31N 30°35' W 054°44'0 0.7 27.3
2016-Sep-29 09:04N 30°35' W 054°44'015.0
2016-Sep-29 09:02N 30°35' W 054°43'0 0.3 27.3
2016-Sep-29 08:19N 30°35' W 054°43'0 0.2 27.2
2016-Sep-29 06:43N 30°35' W 054°43'0 0.6 27.2
2016-Sep-29 06:38N 30°35' W 054°43'2 0.3 27.2
2016-Sep-29 01:54N 30°34' W 054°41'0 4.1 26.9
2016-Sep-29 01:47N 30°34' W 054°41'0 0.0 26.9
2016-Sep-29 01:08N 30°34' W 054°41'1 6.7 26.9
2016-Sep-29 01:01N 30°33' W 054°41'0 0.1 26.9
2016-Sep-29 00:16N 30°33' W 054°41'1 1.4 26.9
2016-Sep-28 23:28N 30°32' W 054°40'0 0.0 26.9
2016-Sep-28 22:52N 30°32' W 054°40'0 3.3 26.9
2016-Sep-28 22:49N 30°32' W 054°40'0 2.7 26.9
2016-Sep-28 22:42N 30°32' W 054°39'1 2.1 26.9
2016-Sep-28 22:18N 30°32' W 054°40'2 1.7 26.9
2016-Sep-28 21:18N 30°31' W 054°38'1 0.9 26.9
2016-Sep-28 20:42N 30°31' W 054°38'0 1.4 26.9
2016-Sep-28 20:37N 30°31' W 054°38'1 7.1 26.9
2016-Sep-28 20:31N 30°31' W 054°37'0 0.1 26.9
2016-Sep-28 19:52N 30°30' W 054°37'1 1.7 26.9
2016-Sep-28 19:34N 30°30' W 054°37'3 2.5 26.9
2016-Sep-28 18:16N 30°31' W 054°33'1 0.3 26.9
2016-Sep-28 16:32N 30°30' W 054°33'2 1.0 26.9
2016-Sep-28 14:35N 30°30' W 054°31'0 0.0 26.9
2016-Sep-28 13:52N 30°30' W 054°31'0 0.1 26.9
2016-Sep-28 12:53N 30°30' W 054°31'1 1.0 26.8
2016-Sep-28 12:03N 30°31' W 054°30'0 0.0 26.9
2016-Sep-28 11:38N 30°31' W 054°30'1 8.1 26.9
2016-Sep-28 11:33N 30°30' W 054°29'0 0.7 26.9
2016-Sep-28 10:55N 30°30' W 054°29'0 0.1 26.9
2016-Sep-28 10:02N 30°30' W 054°29'0 3.1 26.9
2016-Sep-28 09:53N 30°30' W 054°28'0 0.1 26.9
2016-Sep-28 08:52N 30°30' W 054°28'0 1.3 26.9
2016-Sep-28 08:42N 30°30' W 054°28'0 0.0 26.9
2016-Sep-28 08:31N 30°30' W 054°28'1 3.1 26.9
2016-Sep-28 08:17N 30°30' W 054°27'0 0.0 26.9
2016-Sep-28 06:51N 30°30' W 054°27'4 2.3 26.9
2016-Sep-28 05:04N 30°28' W 054°23'0 0.0 26.9
2016-Sep-28 02:15N 30°28' W 054°23'0 0.0 26.9
2016-Sep-28 02:08N 30°28' W 054°23'0 0.0 26.9
2016-Sep-28 01:28N 30°28' W 054°23'111.6 26.9
2016-Sep-28 01:21N 30°28' W 054°21'0 0.0 26.9
2016-Sep-28 00:37N 30°28' W 054°21'0 0.0 26.9
2016-Sep-28 00:33N 30°28' W 054°21'0 0.2 26.9
2016-Sep-27 23:48N 30°27' W 054°21'1 6.3 26.9
2016-Sep-27 23:40N 30°27' W 054°20'0 0.1 26.9
2016-Sep-27 23:16N 30°27' W 054°20'1 1.8 26.9
2016-Sep-27 22:53N 30°27' W 054°20'1 1.6 26.9
2016-Sep-27 22:26N 30°27' W 054°19'0 0.1 26.9
2016-Sep-27 21:42N 30°27' W 054°19'0 0.5 26.9
2016-Sep-27 20:54N 30°27' W 054°18'2 2.6 26.9
2016-Sep-27 20:02N 30°27' W 054°16'0 0.0 27.0
2016-Sep-27 18:27N 30°27' W 054°16'0 0.0 27.0
2016-Sep-27 18:22N 30°27' W 054°16'241.9 27.0
2016-Sep-27 18:19N 30°28' W 054°14'0 0.0 27.0
2016-Sep-27 16:46N 30°28' W 054°14'260.5 27.0
2016-Sep-27 16:44N 30°29' W 054°11'0 0.0 27.0
2016-Sep-27 14:57N 30°29' W 054°11'0 0.3 26.9
2016-Sep-27 14:07N 30°29' W 054°12'1 1.7 26.9
2016-Sep-27 13:19N 30°30' W 054°10'0 0.0 26.9
2016-Sep-27 12:31N 30°30' W 054°10'1 1.4 26.9
2016-Sep-27 12:00N 30°30' W 054°10'0 0.1 26.9
2016-Sep-27 11:07N 30°30' W 054°10'0 2.2 26.9
2016-Sep-27 11:00N 30°31' W 054°10'1 5.3 26.9
2016-Sep-27 10:54N 30°31' W 054°09'0 0.0 26.9
2016-Sep-27 10:28N 30°31' W 054°09'0 0.3 26.9
2016-Sep-27 09:32N 30°31' W 054°09'0 0.9 26.9
2016-Sep-27 09:24N 30°31' W 054°09'0 0.6 26.9
2016-Sep-27 08:42N 30°31' W 054°08'0 6.7 26.9
2016-Sep-27 08:39N 30°31' W 054°08'1 0.4 26.9
2016-Sep-27 07:03N 30°31' W 054°07'0 2.7 26.9
2016-Sep-27 06:55N 30°31' W 054°07'1 0.3 26.9
2016-Sep-27 02:35N 30°32' W 054°06'0 0.0 26.9
2016-Sep-27 02:32N 30°32' W 054°06'0 0.0 26.9
2016-Sep-27 01:47N 30°32' W 054°06'0 2.0 26.9
2016-Sep-27 01:42N 30°32' W 054°05'0 0.4 26.9
2016-Sep-27 00:57N 30°32' W 054°05'0 0.0 26.9
2016-Sep-27 00:53N 30°32' W 054°05'0 0.0 26.9
2016-Sep-27 00:07N 30°32' W 054°05'0 2.4 26.9
2016-Sep-27 00:02N 30°32' W 054°05'0 0.0 26.9
2016-Sep-26 23:47N 30°32' W 054°05'0 0.9 26.9
2016-Sep-26 23:15N 30°32' W 054°05'0 0.0 27.0
2016-Sep-26 23:06N 30°32' W 054°05'0 0.2 27.0
2016-Sep-26 22:43N 30°33' W 054°05'0 3.2 27.0
2016-Sep-26 22:38N 30°33' W 054°04'0 0.0
2016-Sep-26 22:08N 30°33' W 054°04'1 4.0 27.0
2016-Sep-26 21:57N 30°33' W 054°04'0 0.0 27.0
2016-Sep-26 21:05N 30°33' W 054°04'0 4.7 27.1
2016-Sep-26 21:00N 30°34' W 054°05'0 0.0 27.1
2016-Sep-26 20:30N 30°34' W 054°05'1 2.4 27.1
2016-Sep-26 20:13N 30°34' W 054°05'0 0.0 27.1
2016-Sep-26 19:20N 30°34' W 054°05'0 0.0 27.2
2016-Sep-26 18:34N 30°34' W 054°05'110.1 27.2
2016-Sep-26 18:30N 30°35' W 054°05'0 0.0 27.2
2016-Sep-26 16:54N 30°35' W 054°05'1 0.5 27.4
2016-Sep-26 15:17N 30°35' W 054°06'0 0.1 27.3
2016-Sep-26 14:29N 30°35' W 054°06'0 0.2 26.9
2016-Sep-26 13:39N 30°36' W 054°06'0 0.0 26.9
2016-Sep-26 12:53N 30°36' W 054°06'0 0.4 26.9
2016-Sep-26 11:52N 30°36' W 054°06'0 0.0 26.9
2016-Sep-26 11:24N 30°36' W 054°06'0 1.2 26.9
2016-Sep-26 11:18N 30°35' W 054°06'0 0.0 26.9
2016-Sep-26 10:52N 30°35' W 054°06'0 0.1 26.9
2016-Sep-26 09:51N 30°35' W 054°06'0 1.4 26.9
2016-Sep-26 09:44N 30°35' W 054°07'0 2.0 26.9
2016-Sep-26 09:33N 30°35' W 054°07'0 0.6 26.9
2016-Sep-26 08:50N 30°35' W 054°08'0 0.0 26.9
2016-Sep-26 08:15N 30°35' W 054°08'0 0.4 26.9
2016-Sep-26 07:16N 30°35' W 054°08'0 2.6 26.9
2016-Sep-26 07:07N 30°35' W 054°08'1 0.8 26.9
2016-Sep-26 05:25N 30°33' W 054°08'0 0.0 26.9
2016-Sep-26 02:04N 30°33' W 054°08'121.9 26.9
2016-Sep-26 02:02N 30°33' W 054°08'0 0.0 26.9
2016-Sep-26 01:10N 30°33' W 054°08'0 0.0
2016-Sep-26 00:31N 30°33' W 054°08'0 1.8 26.9
2016-Sep-26 00:24N 30°33' W 054°08'1 0.7 26.9
2016-Sep-25 23:34N 30°32' W 054°08'0 0.1 26.9
2016-Sep-25 22:53N 30°33' W 054°08'0 1.4 26.9
2016-Sep-25 22:41N 30°32' W 054°08'0 0.3 26.9
2016-Sep-25 22:30N 30°32' W 054°08'0 1.4 26.9
2016-Sep-25 22:21N 30°32' W 054°08'0 0.0
2016-Sep-25 21:17N 30°32' W 054°08'0 0.8 26.9
2016-Sep-25 20:52N 30°32' W 054°08'0 3.0 26.9
2016-Sep-25 20:46N 30°33' W 054°08'0 0.0 26.9
2016-Sep-25 19:33N 30°33' W 054°08'112.0 26.9
2016-Sep-25 19:30N 30°32' W 054°09'0 0.0 26.9
2016-Sep-25 19:08N 30°32' W 054°09'0 0.0 26.9
2016-Sep-25 18:49N 30°32' W 054°09'1 5.1 26.9
2016-Sep-25 18:42N 30°33' W 054°09'1 0.3 26.9
2016-Sep-25 14:50N 30°32' W 054°10'1 0.8 26.9
2016-Sep-25 13:15N 30°32' W 054°12'0 0.4 26.9
2016-Sep-25 13:08N 30°32' W 054°12'1 0.6 26.9
2016-Sep-25 11:35N 30°31' W 054°12'0 3.3 26.9
2016-Sep-25 11:32N 30°31' W 054°12'1 6.0 26.9
2016-Sep-25 11:26N 30°30' W 054°13'0 0.0 26.9
2016-Sep-25 11:14N 30°30' W 054°13'0 0.5 26.9
2016-Sep-25 10:22N 30°30' W 054°12'0 4.0 26.9
2016-Sep-25 10:15N 30°30' W 054°13'0 0.0 26.9
2016-Sep-25 09:54N 30°30' W 054°13'0 0.0 26.9
2016-Sep-25 09:52N 30°30' W 054°13'0 2.9 26.9
2016-Sep-25 09:47N 30°30' W 054°13'0 1.2 26.9
2016-Sep-25 09:31N 30°30' W 054°13'1 0.7 26.9
2016-Sep-25 08:46N 30°29' W 054°14'1 0.7 26.9
2016-Sep-25 07:28N 30°28' W 054°14'110.1 26.9
2016-Sep-25 07:20N 30°27' W 054°15'0 0.1 26.9
2016-Sep-25 05:44N 30°27' W 054°15'434.4 26.9
2016-Sep-25 05:37N 30°23' W 054°16'0 0.0 26.9
2016-Sep-25 01:38N 30°23' W 054°16'0 0.0 26.9
2016-Sep-25 00:52N 30°23' W 054°16'0 1.2 26.9
2016-Sep-25 00:48N 30°23' W 054°16'115.4 26.9
2016-Sep-25 00:44N 30°23' W 054°14'0 0.0 26.9
2016-Sep-24 23:08N 30°23' W 054°14'0 5.8 26.9
2016-Sep-24 23:03N 30°23' W 054°14'0 0.4 26.9
2016-Sep-24 22:52N 30°23' W 054°15'0 0.1 26.9
2016-Sep-24 21:34N 30°23' W 054°15'0 4.8 27.3
2016-Sep-24 21:28N 30°22' W 054°15'0 2.9 27.3
2016-Sep-24 21:18N 30°22' W 054°15'0 0.0 27.3
2016-Sep-24 19:47N 30°22' W 054°15'117.1 27.3
2016-Sep-24 19:43N 30°21' W 054°15'0 0.0 27.3
2016-Sep-24 19:32N 30°21' W 054°15'1 1.2 27.3
2016-Sep-24 18:53N 30°21' W 054°14'2 1.1 27.2
2016-Sep-24 17:20N 30°20' W 054°15'2 0.9 27.2
2016-Sep-24 15:08N 30°18' W 054°16'2 1.0 27.2
2016-Sep-24 12:39N 30°15' W 054°17'0 0.0 27.3
2016-Sep-24 11:45N 30°15' W 054°17'110.4 27.2
2016-Sep-24 11:38N 30°14' W 054°17'0 0.0 27.2
2016-Sep-24 10:53N 30°14' W 054°17'1 0.6 27.2
2016-Sep-24 10:00N 30°14' W 054°17'1 1.0 27.2
2016-Sep-24 09:17N 30°13' W 054°17'1 0.7 27.3
2016-Sep-24 07:37N 30°12' W 054°17'0 0.0 27.2
2016-Sep-24 07:34N 30°12' W 054°17'3 2.0 27.2
2016-Sep-24 05:49N 30°09' W 054°14'0 0.0 27.2
2016-Sep-24 01:53N 30°09' W 054°14'121.8 27.4
2016-Sep-24 01:51N 30°09' W 054°14'0 0.0 27.4
2016-Sep-24 01:09N 30°09' W 054°14'0 5.5 27.4
2016-Sep-24 01:05N 30°09' W 054°14'0 0.0 27.4
2016-Sep-24 00:19N 30°09' W 054°14'0 0.2 27.5
2016-Sep-23 23:41N 30°09' W 054°14'0 0.7 27.6
2016-Sep-23 23:30N 30°09' W 054°13'0 2.1 27.6
2016-Sep-23 23:18N 30°09' W 054°13'1 1.0 27.6
2016-Sep-23 22:05N 30°08' W 054°12'0 0.0 27.6
2016-Sep-23 22:00N 30°08' W 054°12'0 1.3 27.6
2016-Sep-23 21:40N 30°08' W 054°12'1 0.6 27.6
2016-Sep-23 19:55N 30°07' W 054°12'0 0.0 27.6
2016-Sep-23 19:08N 30°07' W 054°12'1 0.7 27.6
2016-Sep-23 17:32N 30°06' W 054°12'210.7 27.5
2016-Sep-23 17:21N 30°04' W 054°12'0 0.0 27.5
2016-Sep-23 14:41N 30°04' W 054°12'1 9.5 27.4
2016-Sep-23 14:37N 30°04' W 054°11'0 0.0 27.4
2016-Sep-23 13:56N 30°04' W 054°11'1 0.8 27.4
2016-Sep-23 13:01N 30°03' W 054°11'1 0.6 27.4
2016-Sep-23 12:07N 30°03' W 054°10'0 0.0 27.4
2016-Sep-23 12:00N 30°03' W 054°10'0 0.0 27.4
2016-Sep-23 11:53N 30°03' W 054°10'142.9 27.4
2016-Sep-23 11:51N 30°02' W 054°09'0 0.0 27.4
2016-Sep-23 10:24N 30°02' W 054°09'1 5.7 27.3
2016-Sep-23 10:17N 30°01' W 054°09'0 0.5 27.3
2016-Sep-23 09:48N 30°01' W 054°09'0 1.2 27.4
2016-Sep-23 09:45N 30°01' W 054°09'110.8 27.4
2016-Sep-23 09:39N 30°00' W 054°08'1 0.3 27.4
2016-Sep-23 07:49N 30°00' W 054°08'0 2.3 27.4
2016-Sep-23 07:45N 30°00' W 054°08'1 8.6 27.4
2016-Sep-23 07:40N 29°60' W 054°07'0 0.0 27.4
2016-Sep-23 06:11N 29°60' W 054°07'0 0.8 27.4
2016-Sep-23 06:05N 29°60' W 054°07'2 0.5 27.4
2016-Sep-23 02:19N 29°58' W 054°06'1 6.3 27.3
2016-Sep-23 02:14N 29°58' W 054°05'1 0.8 27.3
2016-Sep-23 01:25N 29°57' W 054°05'0 0.0 27.4
2016-Sep-23 00:39N 29°57' W 054°05'0 0.4 27.2
2016-Sep-22 23:49N 29°57' W 054°05'1 2.6 27.2
2016-Sep-22 23:28N 29°57' W 054°04'0 0.0 27.2
2016-Sep-22 22:54N 29°57' W 054°04'0 0.3 27.2
2016-Sep-22 22:36N 29°57' W 054°04'0 0.9 27.2
2016-Sep-22 22:06N 29°57' W 054°04'0 1.0 27.3
2016-Sep-22 21:53N 29°57' W 054°03'0 0.0 27.3
2016-Sep-22 21:51N 29°57' W 054°03'0 0.4 27.3
2016-Sep-22 20:53N 29°57' W 054°03'0 0.5 27.3
2016-Sep-22 20:24N 29°56' W 054°03'0 0.3 27.3
2016-Sep-22 19:22N 29°56' W 054°02'1 5.1 27.3
2016-Sep-22 19:15N 29°56' W 054°02'0 0.0 27.3
2016-Sep-22 17:44N 29°56' W 054°02'3 0.5 27.4
2016-Sep-22 12:30N 29°54' W 053°60'0 0.0 27.4
2016-Sep-22 12:08N 29°54' W 053°60'0 0.7 27.3
2016-Sep-22 11:40N 29°54' W 053°59'0 0.6 27.3
2016-Sep-22 10:52N 29°54' W 053°59'1 1.6 27.3
2016-Sep-22 10:23N 29°53' W 053°58'0 0.0 27.3
2016-Sep-22 10:18N 29°53' W 053°58'1 0.5 27.3
2016-Sep-22 08:45N 29°52' W 053°58'0 5.4 27.3
2016-Sep-22 08:40N 29°53' W 053°58'0 3.0 27.3
2016-Sep-22 08:31N 29°52' W 053°58'0 0.0 27.3
2016-Sep-22 08:02N 29°52' W 053°58'2 8.6 27.3
2016-Sep-22 07:51N 29°52' W 053°56'0 0.0 27.3
2016-Sep-22 06:22N 29°52' W 053°56'0 1.0 27.3
2016-Sep-22 06:17N 29°52' W 053°56'2 0.7 27.3
2016-Sep-22 02:38N 29°51' W 053°53'112.6 27.3
2016-Sep-22 02:34N 29°51' W 053°52'0 0.0 27.3
2016-Sep-22 01:51N 29°51' W 053°52'1 8.0 27.3
2016-Sep-22 01:44N 29°51' W 053°51'0 0.1 27.3
2016-Sep-22 00:54N 29°51' W 053°51'010.0 27.3
2016-Sep-22 00:52N 29°51' W 053°51'1 0.6 27.3
2016-Sep-22 00:04N 29°51' W 053°50'0 0.0 27.3
2016-Sep-21 23:20N 29°51' W 053°50'0 4.0 27.3
2016-Sep-21 23:13N 29°51' W 053°50'0 0.0 27.3
2016-Sep-21 23:05N 29°51' W 053°50'0 2.4 27.3
2016-Sep-21 23:02N 29°51' W 053°50'0 0.5 27.3
2016-Sep-21 22:28N 29°51' W 053°50'0 0.0 27.3
2016-Sep-21 22:01N 29°51' W 053°50'0 1.1 27.3
2016-Sep-21 21:54N 29°51' W 053°50'0 0.0 27.3
2016-Sep-21 21:27N 29°51' W 053°50'0 0.8 27.3
2016-Sep-21 20:52N 29°51' W 053°49'1 1.0 27.4
2016-Sep-21 20:21N 29°51' W 053°49'0 0.5 27.4
2016-Sep-21 19:33N 29°51' W 053°48'1 6.4 27.6
2016-Sep-21 19:26N 29°50' W 053°48'0 0.0 27.6
2016-Sep-21 19:08N 29°50' W 053°48'0 0.0 27.6
2016-Sep-21 17:53N 29°50' W 053°48'2 0.7 27.6
2016-Sep-21 15:20N 29°49' W 053°47'0 0.0 27.6
2016-Sep-21 14:37N 29°49' W 053°47'1 7.8 27.6
2016-Sep-21 14:30N 29°48' W 053°46'0 0.0 27.6
2016-Sep-21 13:42N 29°48' W 053°46'0 0.4 27.5
2016-Sep-21 12:57N 29°48' W 053°46'0 0.4 27.4
2016-Sep-21 12:16N 29°48' W 053°46'0 0.3 27.4
2016-Sep-21 11:58N 29°48' W 053°46'0 0.7 27.4
2016-Sep-21 11:16N 29°47' W 053°46'1 1.6 27.4
2016-Sep-21 10:42N 29°46' W 053°45'0 0.0 27.4
2016-Sep-21 10:40N 29°46' W 053°45'110.1 27.4
2016-Sep-21 10:33N 29°46' W 053°44'0 0.0 27.4
2016-Sep-21 09:36N 29°46' W 053°44'0 1.7 27.4
2016-Sep-21 09:30N 29°46' W 053°44'1 1.4 27.4
2016-Sep-21 09:07N 29°45' W 053°44'0 3.8 27.4
2016-Sep-21 09:02N 29°45' W 053°44'0 0.0 27.4
2016-Sep-21 08:53N 29°45' W 053°44'1 1.3 27.4
2016-Sep-21 08:08N 29°45' W 053°43'1 5.1 27.5
2016-Sep-21 07:52N 29°44' W 053°42'0 0.0 27.5
2016-Sep-21 07:27N 29°44' W 053°42'0 0.1 27.5
2016-Sep-21 06:29N 29°44' W 053°42'   27.5
Track history (hours):
 
Tides and Currents Weather Stations Pressure Air Temp Water Temp Dewpoint Dewpoint Depression Visibility Wind Speed Wind Dir Waves Ship Positions

Drifting buoy 41991

Last reported at 2016-Oct-01 02:07 UTC. Time now 2016-Oct-01 03:19 UTC.
Position N 30°43' W 055°01'.

Water temperature 26.7 ° C

Date/timePositionNaut miles runAvg speedWind from/ knotsBaromVisibWave heightAir tempDewpointWater temp
2016-Oct-01 02:07N 30°43' W 055°01'1 3.9 26.7
2016-Oct-01 01:58N 30°42' W 055°01'0 0.1 26.7
2016-Oct-01 01:08N 30°42' W 055°01'0 6.2 26.7
2016-Oct-01 01:06N 30°42' W 055°01'0 0.5 26.7
2016-Oct-01 00:27N 30°43' W 055°01'1 1.0 26.7
2016-Sep-30 23:37N 30°42' W 055°01'0 0.9 26.7
2016-Sep-30 23:23N 30°42' W 055°01'1 0.7 26.7
2016-Sep-30 22:06N 30°41' W 054°60'0 0.9 26.8
2016-Sep-30 22:01N 30°41' W 054°60'0 2.8 26.8
2016-Sep-30 21:57N 30°41' W 055°00'1 5.6 26.8
2016-Sep-30 21:48N 30°41' W 054°59'0 0.2 26.8
2016-Sep-30 19:27N 30°40' W 054°59'125.1 26.9
2016-Sep-30 19:24N 30°39' W 054°58'0 0.0 26.9
2016-Sep-30 17:53N 30°39' W 054°58'2 0.8 26.8
2016-Sep-30 15:34N 30°39' W 054°56'0 0.0 26.7
2016-Sep-30 14:51N 30°39' W 054°56'0 0.4 26.7
2016-Sep-30 13:54N 30°39' W 054°55'0 0.3 26.6
2016-Sep-30 13:07N 30°39' W 054°55'0 4.7 26.6
2016-Sep-30 13:06N 30°39' W 054°55'1 0.9 26.6
2016-Sep-30 12:12N 30°39' W 054°54'0 0.0 26.6
2016-Sep-30 12:07N 30°39' W 054°54'0 0.0 26.6
2016-Sep-30 11:06N 30°39' W 054°54'0 1.2 26.6
2016-Sep-30 10:48N 30°39' W 054°54'0 1.4 26.6
2016-Sep-30 10:38N 30°39' W 054°54'1 0.4 26.6
2016-Sep-30 08:54N 30°39' W 054°53'0 0.6 26.6
2016-Sep-30 08:08N 30°39' W 054°53'1 6.4 26.6
2016-Sep-30 08:01N 30°39' W 054°52'0 0.0 26.6
2016-Sep-30 07:48N 30°39' W 054°52'1 0.7 26.7
2016-Sep-30 06:26N 30°40' W 054°53'2 0.5 26.7
2016-Sep-30 02:22N 30°37' W 054°52'0 0.0
2016-Sep-30 01:34N 30°37' W 054°52'1 4.8 27.1
2016-Sep-30 01:27N 30°37' W 054°53'0 0.0 27.1
2016-Sep-30 00:49N 30°37' W 054°53'1 3.7 27.2
2016-Sep-30 00:40N 30°37' W 054°52'0 0.0 27.2
2016-Sep-29 23:54N 30°37' W 054°52'1 0.8 27.2
2016-Sep-29 22:28N 30°36' W 054°51'0 0.0 27.3
2016-Sep-29 22:18N 30°36' W 054°51'0 2.0 27.3
2016-Sep-29 22:07N 30°35' W 054°51'113.6 27.3
2016-Sep-29 22:03N 30°35' W 054°50'0 0.1 27.3
2016-Sep-29 20:52N 30°35' W 054°50'0 2.9 27.3
2016-Sep-29 20:47N 30°34' W 054°50'1 3.4 27.3
2016-Sep-29 20:32N 30°35' W 054°49'0 0.1 27.3
2016-Sep-29 19:39N 30°35' W 054°49'1 0.6 27.4
2016-Sep-29 18:04N 30°34' W 054°48'2 1.1 27.4
2016-Sep-29 16:19N 30°34' W 054°46'1 0.5 27.4
2016-Sep-29 15:08N 30°34' W 054°46'0 6.3 27.4
2016-Sep-29 15:04N 30°34' W 054°46'0 0.0 27.4
2016-Sep-29 14:18N 30°34' W 054°46'1 9.1 27.4
2016-Sep-29 14:12N 30°35' W 054°46'0 0.0 27.4
2016-Sep-29 13:31N 30°35' W 054°46'0 7.2
2016-Sep-29 13:30N 30°35' W 054°47'1 9.7 27.3
2016-Sep-29 13:21N 30°35' W 054°45'1 0.9 27.3
2016-Sep-29 12:27N 30°35' W 054°44'0 0.0 27.3
2016-Sep-29 12:24N 30°35' W 054°44'0 0.0 27.3
2016-Sep-29 11:16N 30°35' W 054°44'0 0.2 27.3
2016-Sep-29 10:51N 30°35' W 054°44'0 3.1 27.3
2016-Sep-29 10:44N 30°35' W 054°44'1 1.2 27.3
2016-Sep-29 10:01N 30°35' W 054°45'1 2.5 27.3
2016-Sep-29 09:38N 30°35' W 054°44'0 0.9 27.3
2016-Sep-29 09:31N 30°35' W 054°44'0 0.7 27.3
2016-Sep-29 09:04N 30°35' W 054°44'015.0
2016-Sep-29 09:02N 30°35' W 054°43'0 0.3 27.3
2016-Sep-29 08:19N 30°35' W 054°43'0 0.2 27.2
2016-Sep-29 06:43N 30°35' W 054°43'0 0.6 27.2
2016-Sep-29 06:38N 30°35' W 054°43'2 0.3 27.2
2016-Sep-29 01:54N 30°34' W 054°41'0 4.1 26.9
2016-Sep-29 01:47N 30°34' W 054°41'0 0.0 26.9
2016-Sep-29 01:08N 30°34' W 054°41'1 6.7 26.9
2016-Sep-29 01:01N 30°33' W 054°41'0 0.1 26.9
2016-Sep-29 00:16N 30°33' W 054°41'1 1.4 26.9
2016-Sep-28 23:28N 30°32' W 054°40'0 0.0 26.9
2016-Sep-28 22:52N 30°32' W 054°40'0 3.3 26.9
2016-Sep-28 22:49N 30°32' W 054°40'0 2.7 26.9
2016-Sep-28 22:42N 30°32' W 054°39'1 2.1 26.9
2016-Sep-28 22:18N 30°32' W 054°40'2 1.7 26.9
2016-Sep-28 21:18N 30°31' W 054°38'1 0.9 26.9
2016-Sep-28 20:42N 30°31' W 054°38'0 1.4 26.9
2016-Sep-28 20:37N 30°31' W 054°38'1 7.1 26.9
2016-Sep-28 20:31N 30°31' W 054°37'0 0.1 26.9
2016-Sep-28 19:52N 30°30' W 054°37'1 1.7 26.9
2016-Sep-28 19:34N 30°30' W 054°37'3 2.5 26.9
2016-Sep-28 18:16N 30°31' W 054°33'1 0.3 26.9
2016-Sep-28 16:32N 30°30' W 054°33'2 1.0 26.9
2016-Sep-28 14:35N 30°30' W 054°31'0 0.0 26.9
2016-Sep-28 13:52N 30°30' W 054°31'0 0.1 26.9
2016-Sep-28 12:53N 30°30' W 054°31'1 1.0 26.8
2016-Sep-28 12:03N 30°31' W 054°30'0 0.0 26.9
2016-Sep-28 11:38N 30°31' W 054°30'1 8.1 26.9
2016-Sep-28 11:33N 30°30' W 054°29'0 0.7 26.9
2016-Sep-28 10:55N 30°30' W 054°29'0 0.1 26.9
2016-Sep-28 10:02N 30°30' W 054°29'0 3.1 26.9
2016-Sep-28 09:53N 30°30' W 054°28'0 0.1 26.9
2016-Sep-28 08:52N 30°30' W 054°28'0 1.3 26.9
2016-Sep-28 08:42N 30°30' W 054°28'0 0.0 26.9
2016-Sep-28 08:31N 30°30' W 054°28'1 3.1 26.9
2016-Sep-28 08:17N 30°30' W 054°27'0 0.0 26.9
2016-Sep-28 06:51N 30°30' W 054°27'4 2.3 26.9
2016-Sep-28 05:04N 30°28' W 054°23'0 0.0 26.9
2016-Sep-28 02:15N 30°28' W 054°23'0 0.0 26.9
2016-Sep-28 02:08N 30°28' W 054°23'0 0.0 26.9
2016-Sep-28 01:28N 30°28' W 054°23'111.6 26.9
2016-Sep-28 01:21N 30°28' W 054°21'0 0.0 26.9
2016-Sep-28 00:37N 30°28' W 054°21'0 0.0 26.9
2016-Sep-28 00:33N 30°28' W 054°21'0 0.2 26.9
2016-Sep-27 23:48N 30°27' W 054°21'1 6.3 26.9
2016-Sep-27 23:40N 30°27' W 054°20'0 0.1 26.9
2016-Sep-27 23:16N 30°27' W 054°20'1 1.8 26.9
2016-Sep-27 22:53N 30°27' W 054°20'1 1.6 26.9
2016-Sep-27 22:26N 30°27' W 054°19'0 0.1 26.9
2016-Sep-27 21:42N 30°27' W 054°19'0 0.5 26.9
2016-Sep-27 20:54N 30°27' W 054°18'2 2.6 26.9
2016-Sep-27 20:02N 30°27' W 054°16'0 0.0 27.0
2016-Sep-27 18:27N 30°27' W 054°16'0 0.0 27.0
2016-Sep-27 18:22N 30°27' W 054°16'241.9 27.0
2016-Sep-27 18:19N 30°28' W 054°14'0 0.0 27.0
2016-Sep-27 16:46N 30°28' W 054°14'260.5 27.0
2016-Sep-27 16:44N 30°29' W 054°11'0 0.0 27.0
2016-Sep-27 14:57N 30°29' W 054°11'0 0.3 26.9
2016-Sep-27 14:07N 30°29' W 054°12'1 1.7 26.9
2016-Sep-27 13:19N 30°30' W 054°10'0 0.0 26.9
2016-Sep-27 12:31N 30°30' W 054°10'1 1.4 26.9
2016-Sep-27 12:00N 30°30' W 054°10'0 0.1 26.9
2016-Sep-27 11:07N 30°30' W 054°10'0 2.2 26.9
2016-Sep-27 11:00N 30°31' W 054°10'1 5.3 26.9
2016-Sep-27 10:54N 30°31' W 054°09'0 0.0 26.9
2016-Sep-27 10:28N 30°31' W 054°09'0 0.3 26.9
2016-Sep-27 09:32N 30°31' W 054°09'0 0.9 26.9
2016-Sep-27 09:24N 30°31' W 054°09'0 0.6 26.9
2016-Sep-27 08:42N 30°31' W 054°08'0 6.7 26.9
2016-Sep-27 08:39N 30°31' W 054°08'1 0.4 26.9
2016-Sep-27 07:03N 30°31' W 054°07'0 2.7 26.9
2016-Sep-27 06:55N 30°31' W 054°07'1 0.3 26.9
2016-Sep-27 02:35N 30°32' W 054°06'0 0.0 26.9
2016-Sep-27 02:32N 30°32' W 054°06'0 0.0 26.9
2016-Sep-27 01:47N 30°32' W 054°06'0 2.0 26.9
2016-Sep-27 01:42N 30°32' W 054°05'0 0.4 26.9
2016-Sep-27 00:57N 30°32' W 054°05'0 0.0 26.9
2016-Sep-27 00:53N 30°32' W 054°05'0 0.0 26.9
2016-Sep-27 00:07N 30°32' W 054°05'0 2.4 26.9
2016-Sep-27 00:02N 30°32' W 054°05'0 0.0 26.9
2016-Sep-26 23:47N 30°32' W 054°05'0 0.9 26.9
2016-Sep-26 23:15N 30°32' W 054°05'0 0.0 27.0
2016-Sep-26 23:06N 30°32' W 054°05'0 0.2 27.0
2016-Sep-26 22:43N 30°33' W 054°05'0 3.2 27.0
2016-Sep-26 22:38N 30°33' W 054°04'0 0.0
2016-Sep-26 22:08N 30°33' W 054°04'1 4.0 27.0
2016-Sep-26 21:57N 30°33' W 054°04'0 0.0 27.0
2016-Sep-26 21:05N 30°33' W 054°04'0 4.7 27.1
2016-Sep-26 21:00N 30°34' W 054°05'0 0.0 27.1
2016-Sep-26 20:30N 30°34' W 054°05'1 2.4 27.1
2016-Sep-26 20:13N 30°34' W 054°05'0 0.0 27.1
2016-Sep-26 19:20N 30°34' W 054°05'0 0.0 27.2
2016-Sep-26 18:34N 30°34' W 054°05'110.1 27.2
2016-Sep-26 18:30N 30°35' W 054°05'0 0.0 27.2
2016-Sep-26 16:54N 30°35' W 054°05'1 0.5 27.4
2016-Sep-26 15:17N 30°35' W 054°06'0 0.1 27.3
2016-Sep-26 14:29N 30°35' W 054°06'0 0.2 26.9
2016-Sep-26 13:39N 30°36' W 054°06'0 0.0 26.9
2016-Sep-26 12:53N 30°36' W 054°06'0 0.4 26.9
2016-Sep-26 11:52N 30°36' W 054°06'0 0.0 26.9
2016-Sep-26 11:24N 30°36' W 054°06'0 1.2 26.9
2016-Sep-26 11:18N 30°35' W 054°06'0 0.0 26.9
2016-Sep-26 10:52N 30°35' W 054°06'0 0.1 26.9
2016-Sep-26 09:51N 30°35' W 054°06'0 1.4 26.9
2016-Sep-26 09:44N 30°35' W 054°07'0 2.0 26.9
2016-Sep-26 09:33N 30°35' W 054°07'0 0.6 26.9
2016-Sep-26 08:50N 30°35' W 054°08'0 0.0 26.9
2016-Sep-26 08:15N 30°35' W 054°08'0 0.4 26.9
2016-Sep-26 07:16N 30°35' W 054°08'0 2.6 26.9
2016-Sep-26 07:07N 30°35' W 054°08'1 0.8 26.9
2016-Sep-26 05:25N 30°33' W 054°08'0 0.0 26.9
2016-Sep-26 02:04N 30°33' W 054°08'121.9 26.9
2016-Sep-26 02:02N 30°33' W 054°08'0 0.0 26.9
2016-Sep-26 01:10N 30°33' W 054°08'0 0.0
2016-Sep-26 00:31N 30°33' W 054°08'0 1.8 26.9
2016-Sep-26 00:24N 30°33' W 054°08'1 0.7 26.9
2016-Sep-25 23:34N 30°32' W 054°08'0 0.1 26.9
2016-Sep-25 22:53N 30°33' W 054°08'0 1.4 26.9
2016-Sep-25 22:41N 30°32' W 054°08'0 0.3 26.9
2016-Sep-25 22:30N 30°32' W 054°08'0 1.4 26.9
2016-Sep-25 22:21N 30°32' W 054°08'0 0.0
2016-Sep-25 21:17N 30°32' W 054°08'0 0.8 26.9
2016-Sep-25 20:52N 30°32' W 054°08'0 3.0 26.9
2016-Sep-25 20:46N 30°33' W 054°08'0 0.0 26.9
2016-Sep-25 19:33N 30°33' W 054°08'112.0 26.9
2016-Sep-25 19:30N 30°32' W 054°09'0 0.0 26.9
2016-Sep-25 19:08N 30°32' W 054°09'0 0.0 26.9
2016-Sep-25 18:49N 30°32' W 054°09'1 5.1 26.9
2016-Sep-25 18:42N 30°33' W 054°09'1 0.3 26.9
2016-Sep-25 14:50N 30°32' W 054°10'1 0.8 26.9
2016-Sep-25 13:15N 30°32' W 054°12'0 0.4 26.9
2016-Sep-25 13:08N 30°32' W 054°12'1 0.6 26.9
2016-Sep-25 11:35N 30°31' W 054°12'0 3.3 26.9
2016-Sep-25 11:32N 30°31' W 054°12'1 6.0 26.9
2016-Sep-25 11:26N 30°30' W 054°13'0 0.0 26.9
2016-Sep-25 11:14N 30°30' W 054°13'0 0.5 26.9
2016-Sep-25 10:22N 30°30' W 054°12'0 4.0 26.9
2016-Sep-25 10:15N 30°30' W 054°13'0 0.0 26.9
2016-Sep-25 09:54N 30°30' W 054°13'0 0.0 26.9
2016-Sep-25 09:52N 30°30' W 054°13'0 2.9 26.9
2016-Sep-25 09:47N 30°30' W 054°13'0 1.2 26.9
2016-Sep-25 09:31N 30°30' W 054°13'1 0.7 26.9
2016-Sep-25 08:46N 30°29' W 054°14'1 0.7 26.9
2016-Sep-25 07:28N 30°28' W 054°14'110.1 26.9
2016-Sep-25 07:20N 30°27' W 054°15'0 0.1 26.9
2016-Sep-25 05:44N 30°27' W 054°15'434.4 26.9
2016-Sep-25 05:37N 30°23' W 054°16'0 0.0 26.9
2016-Sep-25 01:38N 30°23' W 054°16'0 0.0 26.9
2016-Sep-25 00:52N 30°23' W 054°16'0 1.2 26.9
2016-Sep-25 00:48N 30°23' W 054°16'115.4 26.9
2016-Sep-25 00:44N 30°23' W 054°14'0 0.0 26.9
2016-Sep-24 23:08N 30°23' W 054°14'0 5.8 26.9
2016-Sep-24 23:03N 30°23' W 054°14'0 0.4 26.9
2016-Sep-24 22:52N 30°23' W 054°15'0 0.1 26.9
2016-Sep-24 21:34N 30°23' W 054°15'0 4.8 27.3
2016-Sep-24 21:28N 30°22' W 054°15'0 2.9 27.3
2016-Sep-24 21:18N 30°22' W 054°15'0 0.0 27.3
2016-Sep-24 19:47N 30°22' W 054°15'117.1 27.3
2016-Sep-24 19:43N 30°21' W 054°15'0 0.0 27.3
2016-Sep-24 19:32N 30°21' W 054°15'1 1.2 27.3
2016-Sep-24 18:53N 30°21' W 054°14'2 1.1 27.2
2016-Sep-24 17:20N 30°20' W 054°15'2 0.9 27.2
2016-Sep-24 15:08N 30°18' W 054°16'2 1.0 27.2
2016-Sep-24 12:39N 30°15' W 054°17'0 0.0 27.3
2016-Sep-24 11:45N 30°15' W 054°17'110.4 27.2
2016-Sep-24 11:38N 30°14' W 054°17'0 0.0 27.2
2016-Sep-24 10:53N 30°14' W 054°17'1 0.6 27.2
2016-Sep-24 10:00N 30°14' W 054°17'1 1.0 27.2
2016-Sep-24 09:17N 30°13' W 054°17'1 0.7 27.3
2016-Sep-24 07:37N 30°12' W 054°17'0 0.0 27.2
2016-Sep-24 07:34N 30°12' W 054°17'3 2.0 27.2
2016-Sep-24 05:49N 30°09' W 054°14'0 0.0 27.2
2016-Sep-24 01:53N 30°09' W 054°14'121.8 27.4
2016-Sep-24 01:51N 30°09' W 054°14'0 0.0 27.4
2016-Sep-24 01:09N 30°09' W 054°14'0 5.5 27.4
2016-Sep-24 01:05N 30°09' W 054°14'0 0.0 27.4
2016-Sep-24 00:19N 30°09' W 054°14'0 0.2 27.5
2016-Sep-23 23:41N 30°09' W 054°14'0 0.7 27.6
2016-Sep-23 23:30N 30°09' W 054°13'0 2.1 27.6
2016-Sep-23 23:18N 30°09' W 054°13'1 1.0 27.6
2016-Sep-23 22:05N 30°08' W 054°12'0 0.0 27.6
2016-Sep-23 22:00N 30°08' W 054°12'0 1.3 27.6
2016-Sep-23 21:40N 30°08' W 054°12'1 0.6 27.6
2016-Sep-23 19:55N 30°07' W 054°12'0 0.0 27.6
2016-Sep-23 19:08N 30°07' W 054°12'1 0.7 27.6
2016-Sep-23 17:32N 30°06' W 054°12'210.7 27.5
2016-Sep-23 17:21N 30°04' W 054°12'0 0.0 27.5
2016-Sep-23 14:41N 30°04' W 054°12'1 9.5 27.4
2016-Sep-23 14:37N 30°04' W 054°11'0 0.0 27.4
2016-Sep-23 13:56N 30°04' W 054°11'1 0.8 27.4
2016-Sep-23 13:01N 30°03' W 054°11'1 0.6 27.4
2016-Sep-23 12:07N 30°03' W 054°10'0 0.0 27.4
2016-Sep-23 12:00N 30°03' W 054°10'0 0.0 27.4
2016-Sep-23 11:53N 30°03' W 054°10'142.9 27.4
2016-Sep-23 11:51N 30°02' W 054°09'0 0.0 27.4
2016-Sep-23 10:24N 30°02' W 054°09'1 5.7 27.3
2016-Sep-23 10:17N 30°01' W 054°09'0 0.5 27.3
2016-Sep-23 09:48N 30°01' W 054°09'0 1.2 27.4
2016-Sep-23 09:45N 30°01' W 054°09'110.8 27.4
2016-Sep-23 09:39N 30°00' W 054°08'1 0.3 27.4
2016-Sep-23 07:49N 30°00' W 054°08'0 2.3 27.4
2016-Sep-23 07:45N 30°00' W 054°08'1 8.6 27.4
2016-Sep-23 07:40N 29°60' W 054°07'0 0.0 27.4
2016-Sep-23 06:11N 29°60' W 054°07'0 0.8 27.4
2016-Sep-23 06:05N 29°60' W 054°07'2 0.5 27.4
2016-Sep-23 02:19N 29°58' W 054°06'1 6.3 27.3
2016-Sep-23 02:14N 29°58' W 054°05'1 0.8 27.3
2016-Sep-23 01:25N 29°57' W 054°05'0 0.0 27.4
2016-Sep-23 00:39N 29°57' W 054°05'0 0.4 27.2
2016-Sep-22 23:49N 29°57' W 054°05'1 2.6 27.2
2016-Sep-22 23:28N 29°57' W 054°04'0 0.0 27.2
2016-Sep-22 22:54N 29°57' W 054°04'0 0.3 27.2
2016-Sep-22 22:36N 29°57' W 054°04'0 0.9 27.2
2016-Sep-22 22:06N 29°57' W 054°04'0 1.0 27.3
2016-Sep-22 21:53N 29°57' W 054°03'0 0.0 27.3
2016-Sep-22 21:51N 29°57' W 054°03'0 0.4 27.3
2016-Sep-22 20:53N 29°57' W 054°03'0 0.5 27.3
2016-Sep-22 20:24N 29°56' W 054°03'0 0.3 27.3
2016-Sep-22 19:22N 29°56' W 054°02'1 5.1 27.3
2016-Sep-22 19:15N 29°56' W 054°02'0 0.0 27.3
2016-Sep-22 17:44N 29°56' W 054°02'3 0.5 27.4
2016-Sep-22 12:30N 29°54' W 053°60'0 0.0 27.4
2016-Sep-22 12:08N 29°54' W 053°60'0 0.7 27.3
2016-Sep-22 11:40N 29°54' W 053°59'0 0.6 27.3
2016-Sep-22 10:52N 29°54' W 053°59'1 1.6 27.3
2016-Sep-22 10:23N 29°53' W 053°58'0 0.0 27.3
2016-Sep-22 10:18N 29°53' W 053°58'1 0.5 27.3
2016-Sep-22 08:45N 29°52' W 053°58'0 5.4 27.3
2016-Sep-22 08:40N 29°53' W 053°58'0 3.0 27.3
2016-Sep-22 08:31N 29°52' W 053°58'0 0.0 27.3
2016-Sep-22 08:02N 29°52' W 053°58'2 8.6 27.3
2016-Sep-22 07:51N 29°52' W 053°56'0 0.0 27.3
2016-Sep-22 06:22N 29°52' W 053°56'0 1.0 27.3
2016-Sep-22 06:17N 29°52' W 053°56'2 0.7 27.3
2016-Sep-22 02:38N 29°51' W 053°53'112.6 27.3
2016-Sep-22 02:34N 29°51' W 053°52'0 0.0 27.3
2016-Sep-22 01:51N 29°51' W 053°52'1 8.0 27.3
2016-Sep-22 01:44N 29°51' W 053°51'0 0.1 27.3
2016-Sep-22 00:54N 29°51' W 053°51'010.0 27.3
2016-Sep-22 00:52N 29°51' W 053°51'1 0.6 27.3
2016-Sep-22 00:04N 29°51' W 053°50'0 0.0 27.3
2016-Sep-21 23:20N 29°51' W 053°50'0 4.0 27.3
2016-Sep-21 23:13N 29°51' W 053°50'0 0.0 27.3
2016-Sep-21 23:05N 29°51' W 053°50'0 2.4 27.3
2016-Sep-21 23:02N 29°51' W 053°50'0 0.5 27.3
2016-Sep-21 22:28N 29°51' W 053°50'0 0.0 27.3
2016-Sep-21 22:01N 29°51' W 053°50'0 1.1 27.3
2016-Sep-21 21:54N 29°51' W 053°50'0 0.0 27.3
2016-Sep-21 21:27N 29°51' W 053°50'0 0.8 27.3
2016-Sep-21 20:52N 29°51' W 053°49'1 1.0 27.4
2016-Sep-21 20:21N 29°51' W 053°49'0 0.5 27.4
2016-Sep-21 19:33N 29°51' W 053°48'1 6.4 27.6
2016-Sep-21 19:26N 29°50' W 053°48'0 0.0 27.6
2016-Sep-21 19:08N 29°50' W 053°48'0 0.0 27.6
2016-Sep-21 17:53N 29°50' W 053°48'2 0.7 27.6
2016-Sep-21 15:20N 29°49' W 053°47'0 0.0 27.6
2016-Sep-21 14:37N 29°49' W 053°47'1 7.8 27.6
2016-Sep-21 14:30N 29°48' W 053°46'0 0.0 27.6
2016-Sep-21 13:42N 29°48' W 053°46'0 0.4 27.5
2016-Sep-21 12:57N 29°48' W 053°46'0 0.4 27.4
2016-Sep-21 12:16N 29°48' W 053°46'0 0.3 27.4
2016-Sep-21 11:58N 29°48' W 053°46'0 0.7 27.4
2016-Sep-21 11:16N 29°47' W 053°46'1 1.6 27.4
2016-Sep-21 10:42N 29°46' W 053°45'0 0.0 27.4
2016-Sep-21 10:40N 29°46' W 053°45'110.1 27.4
2016-Sep-21 10:33N 29°46' W 053°44'0 0.0 27.4
2016-Sep-21 09:36N 29°46' W 053°44'0 1.7 27.4
2016-Sep-21 09:30N 29°46' W 053°44'1 1.4 27.4
2016-Sep-21 09:07N 29°45' W 053°44'0 3.8 27.4
2016-Sep-21 09:02N 29°45' W 053°44'0 0.0 27.4
2016-Sep-21 08:53N 29°45' W 053°44'1 1.3 27.4
2016-Sep-21 08:08N 29°45' W 053°43'1 5.1 27.5
2016-Sep-21 07:52N 29°44' W 053°42'0 0.0 27.5
2016-Sep-21 07:27N 29°44' W 053°42'0 0.1 27.5
2016-Sep-21 06:29N 29°44' W 053°42'   27.5

Dump ship's entire track history